sensor_id;sensor_type;location;lat;lon;timestamp;P1;durP1;ratioP1;P2;durP2;ratioP2
14102;SDS011;7129;48.832;12.472;2022-12-08T05:51:33;23.83;;;16.43;;
14102;SDS011;7129;48.832;12.472;2022-12-08T06:03:12;27.00;;;16.63;;
14102;SDS011;7129;48.832;12.472;2022-12-08T06:08:14;26.07;;;17.07;;
14102;SDS011;7129;48.832;12.472;2022-12-08T06:13:16;24.53;;;17.40;;
14102;SDS011;7129;48.832;12.472;2022-12-08T06:18:20;25.00;;;16.60;;
14102;SDS011;7129;48.832;12.472;2022-12-08T06:23:22;22.40;;;16.63;;
14102;SDS011;7129;48.832;12.472;2022-12-08T06:28:24;22.87;;;16.03;;
14102;SDS011;7129;48.832;12.472;2022-12-08T06:33:28;25.27;;;17.83;;
14102;SDS011;7129;48.832;12.472;2022-12-08T06:38:30;21.93;;;15.83;;
14102;SDS011;7129;48.832;12.472;2022-12-08T06:43:34;21.97;;;14.67;;
14102;SDS011;7129;48.832;12.472;2022-12-08T06:48:37;22.73;;;15.37;;
14102;SDS011;7129;48.832;12.472;2022-12-08T06:53:41;24.10;;;15.70;;
14102;SDS011;7129;48.832;12.472;2022-12-08T07:37:28;24.73;;;16.57;;
14102;SDS011;7129;48.832;12.472;2022-12-08T07:42:30;24.00;;;16.87;;
14102;SDS011;7129;48.832;12.472;2022-12-08T07:47:33;23.93;;;17.30;;
14102;SDS011;7129;48.832;12.472;2022-12-08T07:58:19;26.27;;;18.13;;
14102;SDS011;7129;48.832;12.472;2022-12-08T08:03:21;23.30;;;17.03;;
14102;SDS011;7129;48.832;12.472;2022-12-08T08:08:24;22.73;;;16.17;;
14102;SDS011;7129;48.832;12.472;2022-12-08T08:13:26;24.13;;;17.17;;
14102;SDS011;7129;48.832;12.472;2022-12-08T08:18:45;25.03;;;17.23;;
14102;SDS011;7129;48.832;12.472;2022-12-08T08:23:55;23.50;;;16.10;;
14102;SDS011;7129;48.832;12.472;2022-12-08T08:29:08;25.23;;;16.53;;
14102;SDS011;7129;48.832;12.472;2022-12-08T08:34:11;25.33;;;16.50;;
14102;SDS011;7129;48.832;12.472;2022-12-08T08:39:14;26.17;;;17.13;;
14102;SDS011;7129;48.832;12.472;2022-12-08T08:44:16;25.70;;;17.23;;
14102;SDS011;7129;48.832;12.472;2022-12-08T08:49:29;26.33;;;18.20;;
14102;SDS011;7129;48.832;12.472;2022-12-08T08:54:32;22.87;;;16.43;;
14102;SDS011;7129;48.832;12.472;2022-12-08T08:59:35;26.00;;;17.73;;
14102;SDS011;7129;48.832;12.472;2022-12-08T09:04:37;25.73;;;17.67;;
14102;SDS011;7129;48.832;12.472;2022-12-08T09:09:40;31.80;;;20.73;;
14102;SDS011;7129;48.832;12.472;2022-12-08T09:14:45;26.50;;;18.97;;
14102;SDS011;7129;48.832;12.472;2022-12-08T09:19:47;30.87;;;19.07;;
14102;SDS011;7129;48.832;12.472;2022-12-08T09:24:50;26.77;;;17.43;;
14102;SDS011;7129;48.832;12.472;2022-12-08T09:29:52;24.27;;;17.47;;
14102;SDS011;7129;48.832;12.472;2022-12-08T09:34:54;27.70;;;19.40;;
14102;SDS011;7129;48.832;12.472;2022-12-08T09:39:58;27.43;;;18.97;;
14102;SDS011;7129;48.832;12.472;2022-12-08T09:45:02;27.60;;;19.10;;
14102;SDS011;7129;48.832;12.472;2022-12-08T09:50:10;29.20;;;19.27;;
14102;SDS011;7129;48.832;12.472;2022-12-08T10:06:31;25.67;;;19.37;;
14102;SDS011;7129;48.832;12.472;2022-12-08T10:11:45;27.90;;;19.80;;
14102;SDS011;7129;48.832;12.472;2022-12-08T10:16:59;24.70;;;18.50;;
14102;SDS011;7129;48.832;12.472;2022-12-08T10:22:11;26.47;;;19.50;;
14102;SDS011;7129;48.832;12.472;2022-12-08T10:27:17;26.80;;;20.10;;
14102;SDS011;7129;48.832;12.472;2022-12-08T10:32:21;25.07;;;19.00;;
14102;SDS011;7129;48.832;12.472;2022-12-08T10:37:26;27.57;;;20.67;;
14102;SDS011;7129;48.832;12.472;2022-12-08T10:42:31;30.60;;;20.10;;
14102;SDS011;7129;48.832;12.472;2022-12-08T10:58:29;26.00;;;19.90;;
14102;SDS011;7129;48.832;12.472;2022-12-08T11:03:35;27.97;;;20.80;;
14102;SDS011;7129;48.832;12.472;2022-12-08T11:08:49;27.43;;;20.00;;
14102;SDS011;7129;48.832;12.472;2022-12-08T11:14:27;28.83;;;19.90;;
14102;SDS011;7129;48.832;12.472;2022-12-08T11:19:36;23.90;;;19.20;;
14102;SDS011;7129;48.832;12.472;2022-12-08T11:36:06;25.38;;;19.02;;
14102;SDS011;7129;48.832;12.472;2022-12-08T11:41:13;32.83;;;20.77;;
14102;SDS011;7129;48.832;12.472;2022-12-08T11:46:22;24.15;;;19.25;;
14102;SDS011;7129;48.832;12.472;2022-12-08T11:51:27;25.10;;;19.45;;
14102;SDS011;7129;48.832;12.472;2022-12-08T11:56:35;24.42;;;17.70;;
14102;SDS011;7129;48.832;12.472;2022-12-08T12:01:39;25.38;;;18.60;;
14102;SDS011;7129;48.832;12.472;2022-12-08T12:06:45;22.42;;;17.60;;
14102;SDS011;7129;48.832;12.472;2022-12-08T12:12:07;24.63;;;18.83;;
14102;SDS011;7129;48.832;12.472;2022-12-08T12:17:25;25.13;;;18.95;;
14102;SDS011;7129;48.832;12.472;2022-12-08T12:22:36;24.33;;;19.30;;
14102;SDS011;7129;48.832;12.472;2022-12-08T12:27:46;24.70;;;18.15;;
14102;SDS011;7129;48.832;12.472;2022-12-08T12:32:50;24.08;;;18.52;;
14102;SDS011;7129;48.832;12.472;2022-12-08T12:37:56;23.90;;;18.38;;
14102;SDS011;7129;48.832;12.472;2022-12-08T12:48:30;25.45;;;19.08;;
14102;SDS011;7129;48.832;12.472;2022-12-08T12:53:46;27.23;;;20.00;;
14102;SDS011;7129;48.832;12.472;2022-12-08T12:58:51;27.35;;;18.27;;
14102;SDS011;7129;48.832;12.472;2022-12-08T13:04:01;25.33;;;18.35;;
14102;SDS011;7129;48.832;12.472;2022-12-08T13:09:14;25.50;;;19.13;;
14102;SDS011;7129;48.832;12.472;2022-12-08T13:14:29;26.05;;;19.75;;
14102;SDS011;7129;48.832;12.472;2022-12-08T13:19:34;25.88;;;18.40;;
14102;SDS011;7129;48.832;12.472;2022-12-08T13:24:38;25.50;;;18.53;;
14102;SDS011;7129;48.832;12.472;2022-12-08T13:29:42;23.15;;;17.52;;
14102;SDS011;7129;48.832;12.472;2022-12-08T13:34:46;23.83;;;18.83;;
14102;SDS011;7129;48.832;12.472;2022-12-08T13:39:52;25.77;;;19.03;;
14102;SDS011;7129;48.832;12.472;2022-12-08T13:45:00;24.47;;;19.07;;
14102;SDS011;7129;48.832;12.472;2022-12-08T13:50:10;27.42;;;19.77;;
14102;SDS011;7129;48.832;12.472;2022-12-08T13:55:14;26.93;;;19.80;;
14102;SDS011;7129;48.832;12.472;2022-12-08T14:00:22;28.10;;;19.90;;
14102;SDS011;7129;48.832;12.472;2022-12-08T14:05:26;27.13;;;20.37;;
14102;SDS011;7129;48.832;12.472;2022-12-08T14:10:39;29.00;;;20.20;;
14102;SDS011;7129;48.832;12.472;2022-12-08T14:15:43;29.73;;;20.10;;
14102;SDS011;7129;48.832;12.472;2022-12-08T14:20:45;29.27;;;20.90;;
14102;SDS011;7129;48.832;12.472;2022-12-08T14:26:00;32.73;;;23.87;;
14102;SDS011;7129;48.832;12.472;2022-12-08T14:31:04;31.50;;;22.50;;
14102;SDS011;7129;48.832;12.472;2022-12-08T14:36:12;28.38;;;19.58;;
14102;SDS011;7129;48.832;12.472;2022-12-08T14:41:15;33.27;;;23.17;;
14102;SDS011;7129;48.832;12.472;2022-12-08T14:46:26;31.20;;;22.67;;
14102;SDS011;7129;48.832;12.472;2022-12-08T14:51:29;29.07;;;21.90;;
14102;SDS011;7129;48.832;12.472;2022-12-08T14:56:33;31.97;;;21.57;;
14102;SDS011;7129;48.832;12.472;2022-12-08T15:01:39;32.40;;;22.17;;
14102;SDS011;7129;48.832;12.472;2022-12-08T15:06:45;32.13;;;22.47;;
14102;SDS011;7129;48.832;12.472;2022-12-08T15:11:58;29.40;;;20.23;;
14102;SDS011;7129;48.832;12.472;2022-12-08T15:17:03;30.20;;;21.87;;
14102;SDS011;7129;48.832;12.472;2022-12-08T15:22:29;32.37;;;22.70;;
14102;SDS011;7129;48.832;12.472;2022-12-08T15:27:31;30.37;;;22.00;;
14102;SDS011;7129;48.832;12.472;2022-12-08T15:38:36;32.90;;;22.77;;
14102;SDS011;7129;48.832;12.472;2022-12-08T15:43:38;32.07;;;22.37;;
14102;SDS011;7129;48.832;12.472;2022-12-08T15:48:40;27.30;;;19.83;;
14102;SDS011;7129;48.832;12.472;2022-12-08T15:53:43;28.43;;;20.00;;
14102;SDS011;7129;48.832;12.472;2022-12-08T15:58:45;24.83;;;18.93;;
14102;SDS011;7129;48.832;12.472;2022-12-08T16:03:47;23.67;;;17.77;;
14102;SDS011;7129;48.832;12.472;2022-12-08T16:08:51;31.13;;;19.63;;
14102;SDS011;7129;48.832;12.472;2022-12-08T16:13:52;24.03;;;18.37;;
14102;SDS011;7129;48.832;12.472;2022-12-08T16:18:56;24.13;;;17.30;;
14102;SDS011;7129;48.832;12.472;2022-12-08T16:23:59;24.60;;;17.67;;
14102;SDS011;7129;48.832;12.472;2022-12-08T16:29:01;22.57;;;17.00;;
14102;SDS011;7129;48.832;12.472;2022-12-08T16:34:04;21.57;;;16.13;;
14102;SDS011;7129;48.832;12.472;2022-12-08T16:45:23;22.10;;;17.50;;
14102;SDS011;7129;48.832;12.472;2022-12-08T16:50:47;23.33;;;16.83;;
14102;SDS011;7129;48.832;12.472;2022-12-08T17:01:48;23.53;;;17.30;;
14102;SDS011;7129;48.832;12.472;2022-12-08T17:08:33;26.47;;;17.87;;
14102;SDS011;7129;48.832;12.472;2022-12-08T17:12:17;23.23;;;16.67;;
14102;SDS011;7129;48.832;12.472;2022-12-08T17:17:27;21.10;;;16.57;;
14102;SDS011;7129;48.832;12.472;2022-12-08T17:22:29;20.83;;;15.87;;
14102;SDS011;7129;48.832;12.472;2022-12-08T17:27:31;35.43;;;25.17;;
14102;SDS011;7129;48.832;12.472;2022-12-08T17:32:34;41.93;;;27.80;;
14102;SDS011;7129;48.832;12.472;2022-12-08T17:37:38;44.83;;;29.93;;
14102;SDS011;7129;48.832;12.472;2022-12-08T17:42:40;43.70;;;28.30;;
14102;SDS011;7129;48.832;12.472;2022-12-08T17:47:43;40.67;;;28.10;;
14102;SDS011;7129;48.832;12.472;2022-12-08T17:52:48;41.10;;;28.50;;
14102;SDS011;7129;48.832;12.472;2022-12-08T17:57:50;40.47;;;28.53;;
14102;SDS011;7129;48.832;12.472;2022-12-08T18:02:53;40.37;;;27.07;;
14102;SDS011;7129;48.832;12.472;2022-12-08T18:07:57;39.10;;;26.60;;
14102;SDS011;7129;48.832;12.472;2022-12-08T18:12:59;42.33;;;28.33;;
14102;SDS011;7129;48.832;12.472;2022-12-08T18:18:03;39.73;;;26.57;;
14102;SDS011;7129;48.832;12.472;2022-12-08T18:23:05;38.33;;;27.13;;
14102;SDS011;7129;48.832;12.472;2022-12-08T18:28:07;43.47;;;28.67;;
14102;SDS011;7129;48.832;12.472;2022-12-08T18:33:11;38.33;;;26.90;;
14102;SDS011;7129;48.832;12.472;2022-12-08T18:48:45;38.77;;;25.93;;
14102;SDS011;7129;48.832;12.472;2022-12-08T18:53:50;42.83;;;27.93;;
14102;SDS011;7129;48.832;12.472;2022-12-08T18:58:53;37.73;;;26.53;;
14102;SDS011;7129;48.832;12.472;2022-12-08T19:04:00;40.20;;;25.73;;
14102;SDS011;7129;48.832;12.472;2022-12-08T19:09:05;45.83;;;27.10;;
14102;SDS011;7129;48.832;12.472;2022-12-08T19:14:07;38.67;;;25.13;;
14102;SDS011;7129;48.832;12.472;2022-12-08T19:19:13;40.97;;;26.17;;
14102;SDS011;7129;48.832;12.472;2022-12-08T19:24:56;42.93;;;28.93;;
14102;SDS011;7129;48.832;12.472;2022-12-08T19:30:19;44.07;;;28.73;;
14102;SDS011;7129;48.832;12.472;2022-12-08T19:46:46;39.13;;;25.97;;
14102;SDS011;7129;48.832;12.472;2022-12-08T19:57:50;33.60;;;22.60;;
14102;SDS011;7129;48.832;12.472;2022-12-08T20:02:54;34.07;;;23.50;;
14102;SDS011;7129;48.832;12.472;2022-12-08T20:08:05;34.00;;;23.60;;
14102;SDS011;7129;48.832;12.472;2022-12-08T20:13:09;38.27;;;26.30;;
14102;SDS011;7129;48.832;12.472;2022-12-08T20:18:34;38.37;;;26.07;;
14102;SDS011;7129;48.832;12.472;2022-12-08T20:23:36;40.13;;;26.23;;
14102;SDS011;7129;48.832;12.472;2022-12-08T20:28:38;34.63;;;24.57;;
14102;SDS011;7129;48.832;12.472;2022-12-08T20:33:42;38.00;;;26.27;;
14102;SDS011;7129;48.832;12.472;2022-12-08T20:38:44;32.73;;;23.37;;
14102;SDS011;7129;48.832;12.472;2022-12-08T20:43:46;35.37;;;24.67;;
14102;SDS011;7129;48.832;12.472;2022-12-08T20:54:24;39.00;;;26.93;;
14102;SDS011;7129;48.832;12.472;2022-12-08T20:59:27;38.53;;;26.13;;
14102;SDS011;7129;48.832;12.472;2022-12-08T21:04:29;38.30;;;25.17;;
14102;SDS011;7129;48.832;12.472;2022-12-08T22:23:33;35.03;;;24.93;;
14102;SDS011;7129;48.832;12.472;2022-12-08T22:28:41;39.47;;;27.03;;
14102;SDS011;7129;48.832;12.472;2022-12-08T22:33:51;38.33;;;25.60;;
14102;SDS011;7129;48.832;12.472;2022-12-08T22:39:18;38.30;;;23.27;;
14102;SDS011;7129;48.832;12.472;2022-12-08T22:44:21;35.70;;;25.03;;
14102;SDS011;7129;48.832;12.472;2022-12-08T22:49:23;38.47;;;24.37;;
14102;SDS011;7129;48.832;12.472;2022-12-08T22:54:27;50.30;;;26.90;;
14102;SDS011;7129;48.832;12.472;2022-12-08T22:59:29;128.77;;;36.87;;
14102;SDS011;7129;48.832;12.472;2022-12-08T23:04:32;85.17;;;34.57;;
14102;SDS011;7129;48.832;12.472;2022-12-08T23:09:36;52.33;;;30.50;;
14102;SDS011;7129;48.832;12.472;2022-12-08T23:14:38;53.67;;;32.07;;
14102;SDS011;7129;48.832;12.472;2022-12-08T23:19:40;45.63;;;28.83;;
14102;SDS011;7129;48.832;12.472;2022-12-08T23:24:44;45.17;;;28.67;;
14102;SDS011;7129;48.832;12.472;2022-12-08T23:29:45;54.33;;;30.33;;
14102;SDS011;7129;48.832;12.472;2022-12-08T23:34:47;52.87;;;31.57;;
14102;SDS011;7129;48.832;12.472;2022-12-08T23:39:51;50.20;;;31.60;;
14102;SDS011;7129;48.832;12.472;2022-12-08T23:44:53;51.77;;;30.53;;
14102;SDS011;7129;48.832;12.472;2022-12-08T23:49:55;45.57;;;30.10;;
14102;SDS011;7129;48.832;12.472;2022-12-08T23:54:59;51.73;;;31.37;;
